Time;durP1;ratioP1;P1;durP2;ratioP2;P2;SDS_P1;SDS_P2;PMS_P1;PMS_P2;Temp;Humidity;BMP_temperature;BMP_pressure;BME280_temperature;BME280_humidity;BME280_pressure;Samples;Min_cycle;Max_cycle;Signal;HPM_P1;HPM_P2
2024/02/29 00:01:32;;;;;;;7.80;5.75;;;;;;;10.52;100.00;98033.47;1224397;75;2917460;-65
2024/02/29 00:04:04;;;;;;;7.00;5.55;;;;;;;10.71;99.05;98043.06;1225533;75;2913566;-67
2024/02/29 00:06:37;;;;;;;5.45;4.55;;;;;;;10.70;100.00;98038.03;1224847;75;2919702;-65
2024/02/29 00:09:10;;;;;;;5.20;3.85;;;;;;;10.72;100.00;98043.81;1225103;75;2921945;-64
2024/02/29 00:11:46;;;;;;;5.05;3.90;;;;;;;10.75;100.00;98040.13;1225231;75;2914243;-65
2024/02/29 00:14:18;;;;;;;5.40;3.70;;;;;;;10.73;100.00;98048.84;1224538;75;2918098;-66
2024/02/29 00:16:51;;;;;;;5.55;3.90;;;;;;;10.60;100.00;98040.84;1224911;75;2918129;-67
2024/02/29 00:19:24;;;;;;;6.00;3.80;;;;;;;10.63;100.00;98037.19;1225468;75;2922574;-64
2024/02/29 00:21:57;;;;;;;5.05;3.75;;;;;;;10.64;100.00;98043.41;1224484;75;2917608;-64
2024/02/29 00:24:30;;;;;;;4.40;3.25;;;;;;;10.62;100.00;98037.63;1224985;75;2920507;-65
2024/02/29 00:27:05;;;;;;;3.75;3.35;;;;;;;10.64;100.00;98035.19;1225078;75;2916394;-69
2024/02/29 00:29:39;;;;;;;4.20;3.35;;;;;;;10.59;100.00;98036.59;1224935;75;2919096;-64
2024/02/29 00:32:11;;;;;;;4.75;3.75;;;;;;;10.58;100.00;98028.84;1223831;75;2923005;-65
2024/02/29 00:34:44;;;;;;;4.25;3.30;;;;;;;10.62;100.00;98043.13;1225666;75;2921130;-63
2024/02/29 00:37:17;;;;;;;4.30;3.50;;;;;;;10.54;100.00;98029.03;1224960;75;2924319;-64
2024/02/29 00:39:50;;;;;;;6.05;3.60;;;;;;;10.53;100.00;98027.50;1225224;75;2921118;-65
2024/02/29 00:42:25;;;;;;;5.35;4.05;;;;;;;10.48;100.00;98038.34;1224246;75;2918014;-64
2024/02/29 00:44:58;;;;;;;5.65;3.95;;;;;;;10.51;100.00;98035.44;1224490;75;2925047;-64
2024/02/29 00:47:31;;;;;;;5.10;3.70;;;;;;;10.52;100.00;98027.97;1221885;75;2956050;-64
2024/02/29 00:50:07;;;;;;;5.45;3.95;;;;;;;10.49;100.00;98024.19;1225067;75;2922709;-64
2024/02/29 00:52:40;;;;;;;7.10;4.25;;;;;;;10.49;100.00;98015.97;1222648;75;2920441;-65
2024/02/29 00:55:13;;;;;;;5.10;4.00;;;;;;;10.52;100.00;98017.78;1224134;75;2918375;-65
2024/02/29 00:57:51;;;;;;;5.70;3.85;;;;;;;10.45;100.00;98013.41;1224743;75;2915062;-63
2024/02/29 01:00:24;;;;;;;5.50;4.40;;;;;;;10.41;100.00;98012.84;1224680;75;2918331;-64
2024/02/29 01:02:57;;;;;;;8.05;5.25;;;;;;;10.36;100.00;98007.97;1225426;75;2917784;-64
2024/02/29 01:05:29;;;;;;;6.85;5.15;;;;;;;10.37;100.00;98001.31;1224797;75;2917182;-64
2024/02/29 01:08:03;;;;;;;10.00;5.25;;;;;;;10.28;100.00;98004.09;1225178;75;2916896;-64
2024/02/29 01:10:35;;;;;;;8.65;5.90;;;;;;;10.32;100.00;98001.94;1224548;75;2918772;-65
2024/02/29 01:13:11;;;;;;;7.65;5.60;;;;;;;10.11;100.00;98002.94;1224089;75;2919589;-64
2024/02/29 01:15:46;;;;;;;6.85;5.35;;;;;;;10.24;100.00;98009.69;1224720;75;2921737;-64
2024/02/29 01:18:18;;;;;;;8.60;5.90;;;;;;;10.14;100.00;98005.50;1224409;75;2925192;-64
2024/02/29 01:20:51;;;;;;;6.40;5.55;;;;;;;10.21;100.00;97999.69;1223691;75;2921910;-66
2024/02/29 01:23:24;;;;;;;6.45;4.35;;;;;;;10.24;100.00;97998.75;1224994;75;2914883;-64
2024/02/29 01:25:57;;;;;;;4.95;4.45;;;;;;;10.12;100.00;97999.72;1224460;75;2916460;-66
2024/02/29 01:28:33;;;;;;;5.85;4.80;;;;;;;9.98;100.00;98003.16;1224345;75;2918269;-65
2024/02/29 01:31:06;;;;;;;7.30;5.65;;;;;;;9.83;100.00;98000.31;1224889;75;2915877;-63
2024/02/29 01:33:38;;;;;;;8.00;6.10;;;;;;;9.85;100.00;97997.88;1223983;75;2925044;-64
2024/02/29 01:36:11;;;;;;;8.95;7.65;;;;;;;9.79;100.00;97999.75;1224322;75;2919560;-65
2024/02/29 01:38:44;;;;;;;9.45;7.65;;;;;;;9.78;100.00;98004.44;1224362;75;2923062;-64
2024/02/29 01:41:17;;;;;;;10.30;7.95;;;;;;;9.89;100.00;97993.03;1222660;75;2923352;-68
2024/02/29 01:44:02;;;;;;;9.05;6.60;;;;;;;9.94;100.00;97989.66;1223747;83;2923469;-66
2024/02/29 01:46:34;;;;;;;6.85;5.35;;;;;;;10.00;100.00;97997.97;1224213;75;2925620;-64
2024/02/29 01:49:08;;;;;;;6.65;5.30;;;;;;;10.00;100.00;97992.50;1223662;75;2921356;-66
2024/02/29 01:51:42;;;;;;;6.40;4.95;;;;;;;10.06;100.00;97989.91;1222773;75;2919076;-66
2024/02/29 01:54:15;;;;;;;6.30;4.85;;;;;;;10.10;100.00;97994.00;1224426;75;2914436;-65
2024/02/29 01:56:48;;;;;;;5.60;4.25;;;;;;;10.07;100.00;97994.91;1224685;75;2914825;-63
2024/02/29 01:59:24;;;;;;;5.35;4.15;;;;;;;10.08;100.00;97987.44;1224973;75;2925177;-64
2024/02/29 02:01:57;;;;;;;6.20;4.35;;;;;;;10.09;100.00;97988.97;1223994;75;2923694;-64
2024/02/29 02:04:30;;;;;;;4.95;3.90;;;;;;;10.08;100.00;97990.19;1224640;75;2924633;-65
2024/02/29 02:07:04;;;;;;;7.15;5.40;;;;;;;9.84;100.00;97992.88;1224409;75;2931426;-65
2024/02/29 02:09:41;;;;;;;10.80;8.40;;;;;;;9.70;100.00;97986.13;1220991;75;2940929;-64
2024/02/29 02:12:13;;;;;;;11.40;9.15;;;;;;;9.65;100.00;97987.50;1222654;67;2918304;-64
2024/02/29 02:14:49;;;;;;;12.05;9.90;;;;;;;9.68;100.00;97985.81;1224676;75;2921738;-64
2024/02/29 02:17:22;;;;;;;15.50;11.25;;;;;;;9.58;100.00;97979.63;1223224;75;2928122;-65
2024/02/29 02:19:55;;;;;;;14.80;10.65;;;;;;;9.50;100.00;97984.66;1223990;75;2922572;-63
2024/02/29 02:22:31;;;;;;;15.85;11.70;;;;;;;9.44;100.00;97981.03;1223031;75;2923083;-66
2024/02/29 02:25:04;;;;;;;15.20;12.05;;;;;;;9.49;100.00;97971.44;1224864;75;2915966;-66
2024/02/29 02:27:37;;;;;;;16.25;11.70;;;;;;;9.45;100.00;97971.59;1224901;75;2917978;-65
2024/02/29 02:30:11;;;;;;;15.10;11.40;;;;;;;9.49;100.00;97974.19;1224259;75;2921088;-64
2024/02/29 02:32:44;;;;;;;15.35;11.70;;;;;;;9.42;100.00;97975.25;1224167;75;2912390;-65
2024/02/29 02:35:17;;;;;;;19.20;13.55;;;;;;;9.23;100.00;97977.28;1224153;75;2922513;-64
2024/02/29 02:37:53;;;;;;;22.40;14.85;;;;;;;9.15;100.00;97981.53;1223938;75;2922999;-64
2024/02/29 02:40:26;;;;;;;20.10;14.95;;;;;;;9.14;100.00;97982.78;1224880;75;2918786;-62
2024/02/29 02:42:59;;;;;;;17.75;12.55;;;;;;;9.21;100.00;97984.41;1221719;75;2939418;-64
2024/02/29 02:45:32;;;;;;;15.15;11.80;;;;;;;9.26;100.00;97984.56;1223338;75;2918448;-64
2024/02/29 02:48:05;;;;;;;13.15;9.90;;;;;;;9.36;100.00;97977.09;1224703;75;2919960;-66
2024/02/29 02:50:37;;;;;;;12.25;9.35;;;;;;;9.40;100.00;97983.16;1223384;75;2920503;-65
2024/02/29 02:53:13;;;;;;;15.10;11.00;;;;;;;9.24;100.00;97978.06;1223363;75;2922131;-63
2024/02/29 02:55:46;;;;;;;15.95;12.05;;;;;;;9.13;100.00;97973.03;1223702;75;2923613;-65
2024/02/29 02:58:19;;;;;;;18.35;13.30;;;;;;;9.00;100.00;97975.19;1224207;75;2921022;-65
2024/02/29 03:00:52;;;;;;;16.30;12.55;;;;;;;9.07;100.00;97972.91;1223703;75;2921003;-64
2024/02/29 03:03:24;;;;;;;21.65;16.95;;;;;;;8.81;100.00;97977.19;1225564;75;2919608;-64
2024/02/29 03:05:57;;;;;;;19.90;15.35;;;;;;;8.89;100.00;97983.84;1224707;75;2922995;-65
2024/02/29 03:08:33;;;;;;;18.60;14.30;;;;;;;8.77;100.00;97974.59;1224287;75;2919749;-65
2024/02/29 03:11:06;;;;;;;23.35;16.60;;;;;;;8.79;100.00;97983.09;1224977;75;2923193;-65
2024/02/29 03:13:39;;;;;;;22.45;16.25;;;;;;;8.76;100.00;97972.34;1225311;75;2916340;-65
2024/02/29 03:16:12;;;;;;;21.65;17.05;;;;;;;8.74;100.00;97981.72;1225006;75;2915528;-66
2024/02/29 03:18:45;;;;;;;15.50;13.00;;;;;;;9.04;100.00;97975.78;1224913;75;2917118;-64
2024/02/29 03:21:18;;;;;;;15.40;12.60;;;;;;;8.94;100.00;97970.34;1224318;75;2915458;-66
2024/02/29 03:23:54;;;;;;;18.75;13.95;;;;;;;8.93;100.00;97970.81;1224956;75;2920210;-64
2024/02/29 03:26:28;;;;;;;15.85;11.70;;;;;;;9.14;100.00;97967.13;1225435;75;2919387;-63
2024/02/29 03:29:01;;;;;;;14.70;10.70;;;;;;;9.09;100.00;97970.50;1225657;75;2922361;-64
2024/02/29 03:31:33;;;;;;;16.75;13.30;;;;;;;8.82;100.00;97982.19;1224174;75;2910689;-62
2024/02/29 03:34:06;;;;;;;23.65;17.90;;;;;;;8.71;100.00;97990.06;1224480;75;2953221;-66
2024/02/29 03:36:39;;;;;;;28.15;20.65;;;;;;;8.47;100.00;97989.91;1224359;75;2917517;-65
2024/02/29 03:39:15;;;;;;;27.85;20.65;;;;;;;8.51;100.00;97998.69;1224440;75;2952780;-64
2024/02/29 03:41:48;;;;;;;27.70;19.80;;;;;;;8.40;100.00;97988.22;1223714;75;2923285;-66
2024/02/29 03:44:20;;;;;;;28.60;20.70;;;;;;;8.27;100.00;97988.34;1224870;75;2925800;-66
2024/02/29 03:46:53;;;;;;;29.55;22.50;;;;;;;8.27;100.00;97984.81;1224649;75;2932013;-65
2024/02/29 03:49:26;;;;;;;26.75;19.40;;;;;;;8.46;100.00;97982.91;1225002;75;2915126;-61
2024/02/29 03:51:59;;;;;;;20.75;15.85;;;;;;;8.64;100.00;97977.47;1224048;75;2917911;-64
2024/02/29 03:54:34;;;;;;;23.55;17.20;;;;;;;8.44;100.00;97961.56;1223440;83;2919864;-63
2024/02/29 03:57:07;;;;;;;22.70;16.60;;;;;;;8.60;100.00;97955.03;1224785;75;2921174;-64
2024/02/29 03:59:40;;;;;;;16.65;12.65;;;;;;;8.71;100.00;97958.06;1224712;75;2927783;-65
2024/02/29 04:02:13;;;;;;;28.10;21.45;;;;;;;8.37;100.00;97941.97;1224415;75;2920062;-63
2024/02/29 04:04:46;;;;;;;26.30;20.20;;;;;;;8.44;100.00;97941.69;1224728;75;2935916;-67
2024/02/29 04:07:19;;;;;;;25.50;17.75;;;;;;;8.52;100.00;97943.66;1224488;75;2922917;-65
2024/02/29 04:09:55;;;;;;;20.20;16.15;;;;;;;8.57;100.00;97938.84;1224265;75;2928059;-67
2024/02/29 04:12:28;;;;;;;21.35;15.75;;;;;;;8.67;100.00;97949.28;1223214;75;2940428;-65
2024/02/29 04:15:02;;;;;;;15.55;11.60;;;;;;;8.91;100.00;97945.94;1224856;75;2915434;-64
2024/02/29 04:17:36;;;;;;;15.05;10.85;;;;;;;8.91;100.00;97948.66;1224311;75;2921649;-63
2024/02/29 04:20:11;;;;;;;15.00;10.35;;;;;;;8.80;100.00;97951.09;1223891;75;2926905;-65
2024/02/29 04:22:44;;;;;;;14.25;10.35;;;;;;;8.76;100.00;97939.59;1224158;75;2922231;-63
2024/02/29 04:25:22;;;;;;;15.10;11.30;;;;;;;8.69;100.00;97946.84;1224825;75;2919739;-65
2024/02/29 04:27:55;;;;;;;14.30;10.30;;;;;;;8.76;100.00;97945.78;1224962;75;2923633;-64
2024/02/29 04:30:28;;;;;;;11.85;9.00;;;;;;;8.91;100.00;97940.47;1224328;75;2919737;-65
2024/02/29 04:33:02;;;;;;;10.25;8.00;;;;;;;8.95;100.00;97943.81;1223950;75;2922563;-64
2024/02/29 04:35:36;;;;;;;12.40;10.10;;;;;;;8.72;100.00;97945.19;1224828;75;2916985;-63
2024/02/29 04:38:09;;;;;;;15.15;11.65;;;;;;;8.67;100.00;97941.09;1220598;75;3073126;-64
2024/02/29 04:40:44;;;;;;;14.55;10.55;;;;;;;8.78;100.00;97931.69;1223074;75;2920794;-65
2024/02/29 04:43:17;;;;;;;15.10;11.75;;;;;;;8.58;100.00;97937.59;1224101;75;2921867;-67
2024/02/29 04:45:50;;;;;;;18.35;13.60;;;;;;;8.59;100.00;97934.44;1224113;75;2921544;-64
2024/02/29 04:48:23;;;;;;;20.10;15.25;;;;;;;8.51;100.00;97922.28;1223497;75;2920473;-64
2024/02/29 04:50:56;;;;;;;17.60;13.80;;;;;;;8.45;100.00;97918.66;1223214;75;2924863;-66
2024/02/29 04:53:29;;;;;;;15.95;12.25;;;;;;;8.80;100.00;97919.09;1223701;75;2924843;-64
2024/02/29 04:56:04;;;;;;;12.95;10.50;;;;;;;8.74;100.00;97923.66;1223778;75;2925725;-67
2024/02/29 04:58:37;;;;;;;11.65;9.10;;;;;;;8.90;100.00;97922.59;1223736;75;2921003;-64
2024/02/29 05:01:10;;;;;;;9.65;7.35;;;;;;;8.98;100.00;97923.78;1222727;75;2926030;-66
2024/02/29 05:03:44;;;;;;;12.65;8.55;;;;;;;8.75;100.00;97922.44;1224171;75;2920254;-64
2024/02/29 05:06:17;;;;;;;14.95;12.05;;;;;;;8.61;100.00;97915.63;1224036;75;2919189;-64
2024/02/29 05:08:49;;;;;;;17.55;12.65;;;;;;;8.72;100.00;97920.63;1223661;75;2926532;-64
2024/02/29 05:11:25;;;;;;;14.70;11.45;;;;;;;8.61;100.00;97923.81;1223998;75;2922232;-64
2024/02/29 05:13:59;;;;;;;15.45;11.50;;;;;;;8.76;100.00;97928.66;1222328;75;2937354;-64
2024/02/29 05:16:31;;;;;;;19.15;14.45;;;;;;;8.46;100.00;97928.34;1222511;75;2923683;-64
2024/02/29 05:19:04;;;;;;;19.60;14.75;;;;;;;8.41;100.00;97926.97;1221154;75;2920740;-63
2024/02/29 05:21:38;;;;;;;28.10;20.65;;;;;;;8.26;100.00;97915.88;1222684;75;2934834;-64
2024/02/29 05:24:11;;;;;;;27.50;18.35;;;;;;;8.42;100.00;97925.00;1222994;75;2924656;-66
2024/02/29 05:26:47;;;;;;;27.30;19.60;;;;;;;8.38;100.00;97925.16;1223314;75;2940052;-64
2024/02/29 05:29:20;;;;;;;25.10;19.20;;;;;;;8.28;100.00;97929.84;1223636;75;2924484;-64
2024/02/29 05:31:56;;;;;;;26.20;18.85;;;;;;;8.32;100.00;97929.69;1223606;75;2923887;-63
2024/02/29 05:34:29;;;;;;;25.05;19.40;;;;;;;8.18;100.00;97933.00;1223691;75;2924446;-64
2024/02/29 05:37:02;;;;;;;25.70;19.15;;;;;;;8.14;100.00;97933.16;1223561;75;2922243;-64
2024/02/29 05:39:35;;;;;;;26.70;21.05;;;;;;;8.02;100.00;97937.53;1224445;75;2920856;-64
2024/02/29 05:42:10;;;;;;;26.85;19.70;;;;;;;8.24;100.00;97931.94;1221938;75;2935651;-64
2024/02/29 05:44:43;;;;;;;19.95;14.90;;;;;;;8.37;100.00;97931.81;1224273;75;2921668;-64
2024/02/29 05:47:16;;;;;;;18.05;14.25;;;;;;;8.44;100.00;97926.09;1224107;75;2924355;-61
2024/02/29 05:49:49;;;;;;;16.35;12.55;;;;;;;8.45;100.00;97927.59;1223394;75;2925790;-63
2024/02/29 05:52:21;;;;;;;20.60;15.75;;;;;;;8.26;100.00;97926.81;1222465;75;2921572;-65
2024/02/29 05:54:54;;;;;;;19.15;14.75;;;;;;;8.48;100.00;97923.19;1224363;75;2926199;-62
2024/02/29 05:57:31;;;;;;;15.50;12.05;;;;;;;8.64;100.00;97922.91;1223136;75;2919211;-62
2024/02/29 06:00:05;;;;;;;18.05;13.60;;;;;;;8.52;100.00;97932.00;1224193;75;2914041;-61
2024/02/29 06:02:38;;;;;;;14.90;11.25;;;;;;;8.71;100.00;97922.59;1223564;75;2890975;-64
2024/02/29 06:05:12;;;;;;;13.90;9.95;;;;;;;8.72;100.00;97923.34;1223566;75;2925895;-64
2024/02/29 06:07:45;;;;;;;19.05;13.60;;;;;;;8.48;100.00;97926.69;1223873;75;2917792;-64
2024/02/29 06:10:19;;;;;;;20.45;15.90;;;;;;;8.48;100.00;97925.94;1223636;75;2921151;-63
2024/02/29 06:12:54;;;;;;;21.60;16.45;;;;;;;8.42;100.00;97927.75;1223117;75;2923137;-64
2024/02/29 06:15:27;;;;;;;16.05;12.55;;;;;;;8.72;100.00;97924.09;1224134;75;2920427;-64
2024/02/29 06:18:00;;;;;;;11.75;9.60;;;;;;;8.77;100.00;97933.66;1224734;75;2924311;-66
2024/02/29 06:20:33;;;;;;;14.95;10.80;;;;;;;8.60;100.00;97941.41;1223816;75;2937590;-65
2024/02/29 06:23:05;;;;;;;20.70;14.95;;;;;;;8.45;100.00;97941.25;1223476;75;2924539;-64
2024/02/29 06:25:38;;;;;;;23.95;18.15;;;;;;;8.36;100.00;97948.63;1222995;75;2922340;-66
2024/02/29 06:28:14;;;;;;;26.90;20.00;;;;;;;8.24;100.00;97939.38;1222755;75;2927309;-65
2024/02/29 06:30:47;;;;;;;28.35;20.05;;;;;;;8.36;100.00;97945.91;1222271;75;2937934;-69
2024/02/29 06:33:20;;;;;;;26.25;18.35;;;;;;;8.43;100.00;97953.81;1224052;75;2924442;-65
2024/02/29 06:35:53;;;;;;;26.00;18.60;;;;;;;8.33;100.00;97955.75;1223464;75;2922035;-63
2024/02/29 06:38:29;;;;;;;30.20;20.65;;;;;;;8.22;100.00;97949.97;1223972;75;2921099;-66
2024/02/29 06:41:03;;;;;;;32.70;23.20;;;;;;;8.27;100.00;97949.38;1222195;75;2917652;-63
2024/02/29 06:43:38;;;;;;;26.45;20.05;;;;;;;8.44;100.00;97941.69;1221905;75;2935007;-65
2024/02/29 06:46:11;;;;;;;24.40;17.60;;;;;;;8.41;100.00;97942.59;1223568;75;2933309;-66
2024/02/29 06:48:44;;;;;;;22.80;17.10;;;;;;;8.48;100.00;97943.06;1224626;75;2932493;-64
2024/02/29 06:51:17;;;;;;;26.45;18.55;;;;;;;8.42;100.00;97944.09;1223294;75;2920137;-64
2024/02/29 06:53:49;;;;;;;23.90;18.20;;;;;;;8.44;100.00;97947.16;1223624;75;2919969;-65
2024/02/29 06:56:22;;;;;;;23.60;17.00;;;;;;;8.53;100.00;97958.81;1223524;75;2922594;-64
2024/02/29 06:58:58;;;;;;;23.90;16.90;;;;;;;8.65;100.00;97942.75;1224279;75;2926450;-64
2024/02/29 07:01:32;;;;;;;20.75;14.95;;;;;;;8.62;100.00;97947.16;1222534;75;2921736;-63
2024/02/29 07:04:06;;;;;;;17.85;13.15;;;;;;;8.75;100.00;97949.72;1224573;75;2930782;-64
2024/02/29 07:06:39;;;;;;;17.40;12.60;;;;;;;8.82;100.00;97945.94;1223748;75;2924489;-62
2024/02/29 07:09:12;;;;;;;20.65;14.50;;;;;;;8.72;100.00;97951.41;1224075;75;2920377;-64
2024/02/29 07:11:45;;;;;;;24.85;17.75;;;;;;;8.49;100.00;97949.25;1223680;75;2928316;-66
2024/02/29 07:14:21;;;;;;;29.95;19.40;;;;;;;8.52;100.00;97957.31;1221315;75;2935593;-63
2024/02/29 07:16:53;;;;;;;22.55;16.55;;;;;;;8.66;100.00;97958.69;1223721;75;2928237;-66
2024/02/29 07:19:26;;;;;;;30.85;22.75;;;;;;;8.36;100.00;97965.00;1224215;75;2918191;-63
2024/02/29 07:21:59;;;;;;;31.05;22.20;;;;;;;8.33;100.00;97955.75;1222238;75;2924387;-64
2024/02/29 07:24:32;;;;;;;29.85;21.35;;;;;;;8.50;100.00;97957.00;1223527;75;2923487;-66
2024/02/29 07:27:07;;;;;;;28.75;20.90;;;;;;;8.55;100.00;97963.09;1224046;75;2921887;-65
2024/02/29 07:29:42;;;;;;;31.95;23.80;;;;;;;8.29;100.00;97960.59;1223270;75;2924929;-66
2024/02/29 07:32:15;;;;;;;36.95;23.80;;;;;;;8.39;100.00;97967.56;1222985;75;2936039;-64
2024/02/29 07:34:52;;;;;;;30.80;22.05;;;;;;;8.37;100.00;97969.22;1221485;75;2936279;-65
2024/02/29 07:37:25;;;;;;;27.55;20.10;;;;;;;8.51;100.00;97957.75;1223833;75;2919949;-65
2024/02/29 07:39:57;;;;;;;24.25;18.50;;;;;;;8.56;100.00;97961.84;1222654;75;2927616;-64
2024/02/29 07:42:30;;;;;;;29.10;20.95;;;;;;;8.47;100.00;97963.38;1221435;75;2939918;-67
2024/02/29 07:45:06;;;;;;;28.35;20.30;;;;;;;8.59;100.00;97963.69;1223443;75;2922867;-63
2024/02/29 07:47:40;;;;;;;28.85;20.40;;;;;;;8.64;100.00;97963.84;1223716;75;2927357;-65
2024/02/29 07:50:14;;;;;;;25.35;17.50;;;;;;;8.87;100.00;97950.78;1224031;75;2927159;-65
2024/02/29 07:52:47;;;;;;;20.35;15.10;;;;;;;9.07;100.00;97956.53;1223507;75;2940172;-63
2024/02/29 07:55:20;;;;;;;23.00;17.55;;;;;;;8.89;100.00;97949.09;1223292;75;2930347;-63
2024/02/29 07:57:53;;;;;;;18.00;13.30;;;;;;;9.20;100.00;97956.34;1223839;75;2935170;-65
2024/02/29 08:00:28;;;;;;;16.90;12.45;;;;;;;9.14;100.00;97953.47;1224264;75;2919661;-63
2024/02/29 08:03:01;;;;;;;18.50;14.35;;;;;;;9.08;100.00;97955.31;1223637;75;2930738;-65
2024/02/29 08:05:34;;;;;;;24.65;17.00;;;;;;;9.03;100.00;97949.72;1223158;75;2917507;-64
2024/02/29 08:08:07;;;;;;;18.50;14.45;;;;;;;9.20;100.00;97955.59;1223338;75;2923210;-63
2024/02/29 08:10:40;;;;;;;22.20;15.55;;;;;;;9.16;100.00;97958.47;1221569;75;2942368;-63
2024/02/29 08:13:13;;;;;;;21.05;16.00;;;;;;;9.10;100.00;97946.66;1224281;75;2921460;-64
2024/02/29 08:15:49;;;;;;;26.60;18.15;;;;;;;9.05;100.00;97952.75;1224052;75;2923447;-64
2024/02/29 08:18:21;;;;;;;24.75;18.05;;;;;;;9.31;100.00;97956.63;1222665;75;2924271;-65
2024/02/29 08:20:54;;;;;;;23.90;17.35;;;;;;;9.17;100.00;97952.56;1222909;75;2924181;-65
2024/02/29 08:23:27;;;;;;;21.20;16.05;;;;;;;9.28;100.00;97954.03;1223345;75;2922193;-63
2024/02/29 08:26:00;;;;;;;22.85;17.50;;;;;;;9.28;100.00;97956.78;1223543;75;2922472;-63
2024/02/29 08:28:33;;;;;;;20.10;16.15;;;;;;;9.36;100.00;97950.53;1222833;75;2925744;-64
2024/02/29 08:31:08;;;;;;;20.85;14.80;;;;;;;9.43;100.00;97951.41;1223317;75;2925675;-64
2024/02/29 08:33:41;;;;;;;18.50;13.90;;;;;;;9.70;100.00;97951.31;1222172;75;2923849;-67
2024/02/29 08:36:14;;;;;;;21.05;15.25;;;;;;;9.43;100.00;97952.19;1222245;75;2925198;-66
2024/02/29 08:38:47;;;;;;;24.85;17.40;;;;;;;9.47;100.00;97946.56;1221206;75;2929405;-65
2024/02/29 08:41:20;;;;;;;20.10;15.45;;;;;;;9.75;100.00;97953.44;1221041;75;2938428;-65
2024/02/29 08:43:53;;;;;;;16.05;12.85;;;;;;;9.90;100.00;97942.56;1222280;75;2923600;-64
2024/02/29 08:46:28;;;;;;;18.60;13.95;;;;;;;10.00;100.00;97938.56;1223478;75;2926086;-67
2024/02/29 08:49:04;;;;;;;16.40;12.30;;;;;;;10.18;100.00;97931.47;1223754;75;2922514;-61
2024/02/29 08:51:38;;;;;;;14.00;11.05;;;;;;;10.10;100.00;97936.53;1222125;75;2922751;-64
2024/02/29 08:54:10;;;;;;;14.85;10.50;;;;;;;10.37;100.00;97943.09;1222632;75;2926104;-64
2024/02/29 08:56:43;;;;;;;14.35;9.75;;;;;;;10.40;100.00;97939.41;1222524;75;2927771;-65
2024/02/29 08:59:16;;;;;;;18.65;13.30;;;;;;;10.08;100.00;97941.72;1221728;75;2954994;-64
2024/02/29 09:01:52;;;;;;;20.90;15.50;;;;;;;10.19;100.00;97933.72;1221928;75;2929322;-63
2024/02/29 09:04:25;;;;;;;18.55;13.10;;;;;;;10.41;100.00;97928.00;1223012;75;2923513;-64
2024/02/29 09:06:58;;;;;;;18.10;14.20;;;;;;;10.26;100.00;97923.66;1221193;75;2931967;-64
2024/02/29 09:09:31;;;;;;;17.75;12.35;;;;;;;10.41;100.00;97924.50;1222478;75;2928938;-63
2024/02/29 09:12:06;;;;;;;16.80;12.60;;;;;;;10.66;100.00;97929.47;1221565;75;2920243;-65
2024/02/29 09:14:39;;;;;;;13.70;10.65;;;;;;;10.86;100.00;97922.59;1221991;75;2928044;-65
2024/02/29 09:17:14;;;;;;;14.45;10.65;;;;;;;10.65;100.00;97913.50;1222645;75;2920732;-63
2024/02/29 09:19:47;;;;;;;17.35;12.65;;;;;;;10.79;100.00;97917.50;1221950;75;2933007;-66
2024/02/29 09:22:20;;;;;;;19.45;14.35;;;;;;;10.75;100.00;97912.22;1221379;75;2932373;-67
2024/02/29 09:24:53;;;;;;;15.45;11.25;;;;;;;11.08;100.00;97914.75;1222689;75;2924778;-66
2024/02/29 09:27:26;;;;;;;18.30;11.60;;;;;;;10.95;100.00;97908.81;1222924;75;2920798;-64
2024/02/29 09:29:59;;;;;;;20.80;15.15;;;;;;;10.95;100.00;97908.81;1221885;75;2937467;-65
2024/02/29 09:32:34;;;;;;;23.50;16.65;;;;;;;10.74;100.00;97907.19;1221695;75;2932128;-63
2024/02/29 09:35:08;;;;;;;21.40;16.70;;;;;;;10.83;100.00;97905.13;1222904;75;2934669;-64
2024/02/29 09:37:40;;;;;;;25.75;18.70;;;;;;;10.78;100.00;97900.31;1222042;75;2929694;-66
2024/02/29 09:40:15;;;;;;;29.45;20.25;;;;;;;10.88;100.00;97899.00;1221810;75;2929015;-66
2024/02/29 09:42:48;;;;;;;25.80;18.55;;;;;;;11.09;100.00;97891.63;1222118;75;2928433;-65
2024/02/29 09:45:24;;;;;;;25.40;18.60;;;;;;;11.12;99.84;97889.16;1223052;75;2929852;-63
2024/02/29 09:48:01;;;;;;;23.10;17.60;;;;;;;11.03;100.00;97879.81;1222755;75;2925993;-67
2024/02/29 09:50:33;;;;;;;31.60;20.40;;;;;;;11.26;100.00;97885.66;1222704;75;2931374;-63
2024/02/29 09:53:09;;;;;;;31.50;21.45;;;;;;;10.92;100.00;97878.84;1222789;75;2929797;-68
2024/02/29 09:55:43;;;;;;;31.65;21.40;;;;;;;11.33;99.72;97874.31;1222211;75;2930508;-64
2024/02/29 09:58:17;;;;;;;27.75;20.30;;;;;;;11.24;100.00;97869.69;1223361;75;2926169;-64
2024/02/29 10:00:50;;;;;;;33.50;21.95;;;;;;;10.72;100.00;97874.03;1222024;75;2922549;-65
2024/02/29 10:03:27;;;;;;;27.20;19.70;;;;;;;11.40;95.57;97865.69;1223334;75;2920343;-63
2024/02/29 10:06:02;;;;;;;22.90;16.35;;;;;;;12.06;91.04;97871.84;1222256;75;2932421;-64
2024/02/29 10:08:35;;;;;;;21.95;16.15;;;;;;;12.09;88.66;97868.88;1222341;75;2939695;-64
2024/02/29 10:11:09;;;;;;;23.25;16.95;;;;;;;11.93;90.92;97874.94;1222735;75;2926185;-66
2024/02/29 10:13:43;;;;;;;31.20;20.80;;;;;;;11.48;93.79;97866.06;1222074;75;2921779;-65
2024/02/29 10:16:17;;;;;;;24.35;17.25;;;;;;;12.22;89.38;97868.53;1222326;75;2935425;-64
2024/02/29 10:18:52;;;;;;;20.35;14.80;;;;;;;12.48;86.27;97867.81;1223343;75;2921836;-65
2024/02/29 10:21:25;;;;;;;16.50;12.55;;;;;;;13.05;83.71;97869.09;1223237;75;2932309;-64
2024/02/29 10:24:00;;;;;;;14.65;11.45;;;;;;;13.08;81.76;97879.84;1223400;75;2921689;-63
2024/02/29 10:26:33;;;;;;;21.50;14.40;;;;;;;12.83;83.07;97869.66;1222741;75;2922469;-64
2024/02/29 10:29:07;;;;;;;29.10;19.35;;;;;;;12.13;85.96;97861.19;1223624;75;2927144;-65
2024/02/29 10:31:40;;;;;;;27.05;18.60;;;;;;;12.03;88.36;97861.81;1223579;75;2921456;-66
2024/02/29 10:34:16;;;;;;;29.60;19.75;;;;;;;12.10;87.80;97859.41;1222614;75;2929975;-66
2024/02/29 10:36:49;;;;;;;26.10;18.25;;;;;;;12.51;87.39;97858.63;1224255;75;2919526;-64
2024/02/29 10:39:22;;;;;;;20.55;15.00;;;;;;;12.73;84.23;97852.59;1224006;75;2926670;-64
2024/02/29 10:41:58;;;;;;;29.50;17.90;;;;;;;12.75;84.68;97855.59;1223444;75;2921497;-63
2024/02/29 10:44:36;;;;;;;26.55;18.90;;;;;;;12.35;84.54;97849.72;1223376;75;2927831;-64
2024/02/29 10:47:13;;;;;;;14.10;11.10;;;;;;;13.17;81.72;97838.47;1223487;75;2928540;-66
2024/02/29 10:49:54;;;;;;;24.95;17.75;;;;;;;12.79;82.07;97836.91;1224068;75;2941114;-65
2024/02/29 10:52:34;;;;;;;20.70;14.90;;;;;;;13.15;79.35;97832.69;1223689;75;2928180;-64
2024/02/29 10:55:11;;;;;;;22.35;15.15;;;;;;;13.80;78.01;97818.34;1224054;75;2924782;-66
2024/02/29 10:57:55;;;;;;;19.05;13.20;;;;;;;14.06;75.46;97820.22;1223101;75;2924773;-66
2024/02/29 11:00:28;;;;;;;18.60;12.75;;;;;;;14.06;73.46;97817.47;1223642;75;2918552;-66
2024/02/29 11:03:02;;;;;;;13.85;10.30;;;;;;;14.88;69.87;97811.13;1223469;75;2924800;-65
2024/02/29 11:05:40;;;;;;;19.50;13.70;;;;;;;14.70;71.87;97815.13;1222397;75;2925986;-63
2024/02/29 11:08:14;;;;;;;28.10;16.80;;;;;;;14.19;71.79;97805.97;1223353;75;2918888;-65
2024/02/29 11:10:50;;;;;;;25.30;15.65;;;;;;;13.98;71.85;97800.66;1223764;75;2924204;-65
2024/02/29 11:13:23;;;;;;;20.25;14.15;;;;;;;13.89;72.32;97802.88;1199164;75;5030147;-65
2024/02/29 11:15:59;;;;;;;23.35;14.25;;;;;;;13.98;70.80;97795.16;1224397;75;2922434;-67
2024/02/29 11:18:33;;;;;;;17.95;12.35;;;;;;;14.44;69.64;97798.78;1224459;75;2918033;-65
2024/02/29 11:21:10;;;;;;;22.05;13.40;;;;;;;13.88;71.70;97788.38;1223558;67;2920613;-63
2024/02/29 11:23:44;;;;;;;19.85;13.15;;;;;;;14.13;69.90;97786.69;1224550;75;2922215;-64
2024/02/29 11:26:17;;;;;;;23.90;12.45;;;;;;;13.87;70.61;97784.09;1223720;75;2923949;-66
2024/02/29 11:28:53;;;;;;;15.30;10.55;;;;;;;14.47;68.98;97779.25;1223411;75;2923713;-64
2024/02/29 11:31:26;;;;;;;12.90;9.35;;;;;;;15.11;66.19;97762.25;1222684;75;2920245;-67